createdAt,value
2024-04-16T00:02:00.486Z,2.00
2024-04-16T00:04:27.921Z,1.83
2024-04-16T00:06:57.899Z,2.50
2024-04-16T00:09:25.131Z,2.17
2024-04-16T00:11:54.946Z,1.60
2024-04-16T00:14:22.119Z,1.30
2024-04-16T00:16:54.612Z,1.40
2024-04-16T00:19:21.879Z,2.80
2024-04-16T00:21:51.851Z,1.50
2024-04-16T00:24:19.101Z,1.80
2024-04-16T00:26:48.867Z,1.60
2024-04-16T00:29:16.028Z,1.57
2024-04-16T00:31:45.915Z,2.43
2024-04-16T00:34:15.726Z,1.50
2024-04-16T00:36:45.609Z,2.10
2024-04-16T00:39:13.626Z,1.67
2024-04-16T00:41:43.615Z,2.10
2024-04-16T00:44:10.800Z,2.63
2024-04-16T00:46:43.427Z,2.00
2024-04-16T00:49:12.488Z,1.90
2024-04-16T00:51:45.548Z,2.70
2024-04-16T00:54:12.890Z,2.90
2024-04-16T00:56:43.919Z,2.53
2024-04-16T00:59:11.289Z,2.40
2024-04-16T01:01:41.592Z,2.83
2024-04-16T01:04:08.993Z,2.87
2024-04-16T01:06:40.665Z,2.40
2024-04-16T01:09:12.982Z,2.77
2024-04-16T01:11:43.282Z,2.70
2024-04-16T01:14:11.590Z,2.60
2024-04-16T01:16:41.471Z,2.00
2024-04-16T01:19:08.948Z,1.90
2024-04-16T01:21:38.900Z,3.20
2024-04-16T01:24:08.900Z,2.60
2024-04-16T01:26:38.641Z,2.23
2024-04-16T01:29:05.917Z,2.63
2024-04-16T01:31:35.980Z,2.50
2024-04-16T01:34:03.605Z,2.30
2024-04-16T01:36:33.460Z,2.23
2024-04-16T01:39:00.740Z,2.00
2024-04-16T01:41:33.165Z,2.00
2024-04-16T01:44:00.481Z,2.60
2024-04-16T01:46:30.312Z,2.40
2024-04-16T01:48:59.741Z,2.40
2024-04-16T01:51:31.320Z,1.87
2024-04-16T01:53:58.478Z,2.43
2024-04-16T01:56:28.293Z,1.83
2024-04-16T01:58:58.145Z,2.33
2024-04-16T02:01:30.154Z,1.93
2024-04-16T02:03:57.481Z,0.97
2024-04-16T02:06:27.271Z,0.80
2024-04-16T02:08:54.523Z,0.80
2024-04-16T02:11:25.232Z,0.90
2024-04-16T02:13:54.303Z,0.80
2024-04-16T02:16:27.038Z,0.77
2024-04-16T02:18:54.217Z,0.90
2024-04-16T02:21:24.134Z,0.80
2024-04-16T02:23:51.274Z,0.70
2024-04-16T02:26:21.350Z,0.80
2024-04-16T02:28:48.480Z,0.80
2024-04-16T02:31:18.446Z,0.70
2024-04-16T02:33:48.247Z,0.70
2024-04-16T02:36:19.264Z,0.80
2024-04-16T02:38:47.100Z,0.80
2024-04-16T02:41:17.542Z,0.90
2024-04-16T02:43:44.709Z,0.90
2024-04-16T02:46:14.676Z,0.80
2024-04-16T02:48:41.895Z,0.80
2024-04-16T02:51:16.767Z,0.80
2024-04-16T02:53:43.934Z,0.80
2024-04-16T02:56:13.759Z,1.10
2024-04-16T02:58:41.279Z,1.10
2024-04-16T03:01:11.757Z,0.83
2024-04-16T03:03:39.111Z,1.00
2024-04-16T03:06:09.402Z,1.00
2024-04-16T03:08:39.158Z,1.03
2024-04-16T03:11:09.035Z,1.63
2024-04-16T03:13:36.337Z,1.50
2024-04-16T03:16:09.956Z,1.47
2024-04-16T03:18:37.108Z,1.50
2024-04-16T03:21:07.380Z,1.43
2024-04-16T03:23:34.550Z,1.73
2024-04-16T03:26:08.257Z,1.53
2024-04-16T03:28:35.530Z,1.70
2024-04-16T03:31:05.494Z,1.50
2024-04-16T03:33:33.655Z,1.90
2024-04-16T03:36:03.450Z,1.50
2024-04-16T03:38:33.434Z,1.30
2024-04-16T03:41:04.366Z,1.40
2024-04-16T03:43:36.859Z,1.50
2024-04-16T03:46:05.421Z,1.50
2024-04-16T03:48:35.243Z,1.53
2024-04-16T03:51:02.339Z,1.20
2024-04-16T03:53:34.016Z,1.70
2024-04-16T03:56:02.680Z,1.57
2024-04-16T03:58:34.778Z,1.40
2024-04-16T04:01:06.945Z,1.93
2024-04-16T04:03:37.109Z,1.60
2024-04-16T04:06:04.767Z,1.70
2024-04-16T04:08:34.573Z,2.57
2024-04-16T04:11:01.920Z,1.90
2024-04-16T04:13:31.808Z,2.20
2024-04-16T04:15:59.024Z,2.20
2024-04-16T04:18:31.533Z,2.27
2024-04-16T04:20:58.754Z,2.80
2024-04-16T04:23:28.540Z,2.23
2024-04-16T04:25:55.680Z,2.43
2024-04-16T04:28:25.562Z,2.30
2024-04-16T04:30:52.731Z,1.97
2024-04-16T04:33:22.577Z,1.83
2024-04-16T04:35:52.693Z,2.17
2024-04-16T04:38:24.018Z,1.80
2024-04-16T04:40:51.889Z,1.93
2024-04-16T04:43:21.682Z,2.60
2024-04-16T04:45:48.900Z,1.93
2024-04-16T04:48:18.726Z,2.30
2024-04-16T04:50:46.210Z,2.30
2024-04-16T04:53:18.652Z,1.70
2024-04-16T04:55:45.868Z,2.27
2024-04-16T04:58:15.681Z,2.50
2024-04-16T05:00:43.995Z,2.47
2024-04-16T05:03:13.928Z,3.00
2024-04-16T05:05:44.759Z,2.23
2024-04-16T05:08:14.544Z,2.50
2024-04-16T05:10:51.351Z,2.10
2024-04-16T05:13:21.325Z,2.73
2024-04-16T05:15:51.632Z,3.20
2024-04-16T05:18:21.504Z,2.60
2024-04-16T05:20:49.072Z,3.17
2024-04-16T05:23:19.272Z,2.80
2024-04-16T05:25:56.590Z,2.40
2024-04-16T05:28:26.550Z,2.33
2024-04-16T05:30:53.700Z,2.23
2024-04-16T05:33:23.642Z,1.93
2024-04-16T05:35:50.890Z,2.50
2024-04-16T05:38:20.808Z,1.90
2024-04-16T05:40:47.966Z,2.00
2024-04-16T05:43:20.524Z,2.10
2024-04-16T05:45:47.713Z,2.20
2024-04-16T05:48:17.562Z,1.40
2024-04-16T05:50:44.908Z,2.07
2024-04-16T05:53:14.716Z,1.90
2024-04-16T05:55:41.898Z,1.40
2024-04-16T05:58:12.119Z,1.30
2024-04-16T06:00:42.019Z,2.30
2024-04-16T06:03:11.867Z,1.90
2024-04-16T06:05:39.028Z,2.07
2024-04-16T06:08:09.304Z,2.00
2024-04-16T06:10:36.584Z,1.90
2024-04-16T06:13:06.800Z,1.87
2024-04-16T06:15:34.019Z,1.43
2024-04-16T06:18:10.598Z,1.77
2024-04-16T06:20:38.165Z,1.40
2024-04-16T06:23:08.235Z,1.00
2024-04-16T06:25:38.206Z,1.63
2024-04-16T06:28:08.570Z,1.60
2024-04-16T06:30:35.793Z,1.40
2024-04-16T06:33:08.746Z,1.70
2024-04-16T06:35:36.104Z,1.20
2024-04-16T06:38:05.878Z,1.37
2024-04-16T06:40:33.038Z,1.60
2024-04-16T06:43:03.024Z,1.50
2024-04-16T06:45:30.218Z,1.50
2024-04-16T06:48:01.875Z,2.13
2024-04-16T06:50:33.095Z,1.70
2024-04-16T06:53:02.922Z,1.50
2024-04-16T06:55:31.531Z,1.10
2024-04-16T06:58:02.014Z,1.40
2024-04-16T07:00:29.459Z,1.33
2024-04-16T07:02:59.390Z,1.47
2024-04-16T07:05:26.582Z,2.37
2024-04-16T07:07:59.084Z,1.23
2024-04-16T07:10:26.322Z,1.57
2024-04-16T07:12:56.128Z,1.50
2024-04-16T07:15:23.530Z,1.47
2024-04-16T07:17:53.750Z,1.83
2024-04-16T07:20:20.958Z,1.33
2024-04-16T07:22:50.816Z,1.40
2024-04-16T07:25:20.660Z,1.30
2024-04-16T07:27:50.508Z,1.30
2024-04-16T07:30:19.728Z,1.23
2024-04-16T07:32:49.679Z,1.70
2024-04-16T07:35:17.044Z,1.20
2024-04-16T07:37:46.850Z,1.07
2024-04-16T07:40:14.086Z,1.30
2024-04-16T07:42:46.550Z,0.90
2024-04-16T07:45:13.810Z,1.17
2024-04-16T07:47:43.736Z,1.50
2024-04-16T07:50:10.934Z,2.30
2024-04-16T07:52:40.851Z,1.80
2024-04-16T07:55:08.095Z,1.00
2024-04-16T07:57:37.865Z,1.40
2024-04-16T08:00:09.080Z,1.03
2024-04-16T08:02:38.916Z,0.93
2024-04-16T08:05:06.985Z,0.90
2024-04-16T08:07:36.962Z,1.13
2024-04-16T08:10:04.785Z,0.97
2024-04-16T08:12:34.859Z,1.03
2024-04-16T08:15:01.996Z,1.10
2024-04-16T08:17:35.501Z,0.80
2024-04-16T08:20:07.668Z,1.03
2024-04-16T08:22:37.698Z,1.00
2024-04-16T08:25:08.138Z,0.70
2024-04-16T08:27:35.395Z,0.90
2024-04-16T08:30:05.191Z,0.90
2024-04-16T08:32:35.057Z,0.80
2024-04-16T08:35:05.259Z,0.80
2024-04-16T08:37:32.729Z,0.77
2024-04-16T08:40:02.614Z,0.70
2024-04-16T08:42:30.794Z,0.87
2024-04-16T08:45:03.158Z,0.80
2024-04-16T08:47:31.348Z,0.90
2024-04-16T08:50:04.689Z,0.80
2024-04-16T08:52:33.518Z,1.20
2024-04-16T08:55:03.845Z,0.70
2024-04-16T08:57:32.273Z,0.90
2024-04-16T09:00:02.183Z,0.90
2024-04-16T09:02:32.204Z,0.73
2024-04-16T09:05:05.521Z,0.77
2024-04-16T09:07:34.613Z,0.90
2024-04-16T09:10:14.988Z,0.80
2024-04-16T09:12:44.814Z,0.90
2024-04-16T09:15:15.671Z,1.03
2024-04-16T09:17:56.405Z,1.13
2024-04-16T09:20:31.168Z,1.20
2024-04-16T09:22:58.742Z,0.97
2024-04-16T09:25:30.072Z,1.07
2024-04-16T09:27:58.087Z,1.73
2024-04-16T09:30:28.427Z,1.10
2024-04-16T09:33:00.362Z,1.10
2024-04-16T09:35:35.846Z,1.10
2024-04-16T09:38:05.431Z,0.90
2024-04-16T09:40:36.469Z,0.93
2024-04-16T09:43:06.395Z,0.90
2024-04-16T09:45:38.378Z,0.90
2024-04-16T09:48:07.676Z,0.97
2024-04-16T09:50:50.281Z,0.80
2024-04-16T09:53:24.082Z,1.10
2024-04-16T09:55:56.342Z,1.30
2024-04-16T09:58:27.239Z,0.90
2024-04-16T10:00:58.735Z,0.80
2024-04-16T10:03:28.151Z,0.93
2024-04-16T10:06:00.803Z,0.90
2024-04-16T10:08:28.334Z,0.80
2024-04-16T10:11:08.575Z,1.10
2024-04-16T10:13:39.929Z,1.57
2024-04-16T10:16:14.083Z,0.90
2024-04-16T10:18:41.743Z,0.97
2024-04-16T10:21:26.246Z,0.80
2024-04-16T10:24:00.842Z,0.97
2024-04-16T10:26:33.301Z,0.83
2024-04-16T10:29:01.001Z,1.10
2024-04-16T10:31:35.542Z,1.10
2024-04-16T10:34:03.301Z,0.90
2024-04-16T10:36:37.400Z,1.17
2024-04-16T10:39:11.132Z,1.00
2024-04-16T10:41:40.946Z,1.33
2024-04-16T10:44:10.224Z,1.50
2024-04-16T10:46:41.205Z,1.00
2024-04-16T10:49:08.669Z,1.47
2024-04-16T10:51:41.083Z,1.10
2024-04-16T10:54:08.899Z,1.30
2024-04-16T10:56:40.368Z,1.33
2024-04-16T10:59:07.655Z,1.30
2024-04-16T11:01:37.518Z,1.47
2024-04-16T11:04:11.069Z,1.30
2024-04-16T11:06:43.942Z,1.60
2024-04-16T11:09:11.963Z,1.80
2024-04-16T11:11:42.241Z,1.67
2024-04-16T11:14:10.190Z,1.40
2024-04-16T11:16:40.559Z,1.60
2024-04-16T11:19:08.190Z,2.60
2024-04-16T11:21:38.223Z,2.13
2024-04-16T11:24:08.828Z,2.57
2024-04-16T11:26:40.569Z,1.40
2024-04-16T11:29:08.086Z,1.30
2024-04-16T11:31:37.958Z,1.67
2024-04-16T11:34:05.555Z,1.97
2024-04-16T11:36:35.460Z,1.43
2024-04-16T11:39:03.997Z,1.20
2024-04-16T11:41:37.334Z,1.07
2024-04-16T11:44:04.630Z,1.47
2024-04-16T11:46:34.534Z,1.40
2024-04-16T11:49:01.719Z,1.17
2024-04-16T11:51:31.621Z,1.77
2024-04-16T11:53:58.785Z,1.40
2024-04-16T11:56:28.675Z,1.53
2024-04-16T11:58:58.453Z,1.80
2024-04-16T12:01:28.399Z,1.50
2024-04-16T12:03:55.665Z,1.37
2024-04-16T12:06:25.468Z,1.37
2024-04-16T12:08:53.228Z,1.27
2024-04-16T12:11:23.218Z,1.60
2024-04-16T12:13:50.547Z,1.00
2024-04-16T12:16:22.995Z,1.13
2024-04-16T12:18:50.223Z,1.00
2024-04-16T12:21:20.003Z,0.93
2024-04-16T12:23:48.846Z,1.43
2024-04-16T12:26:19.105Z,1.43
2024-04-16T12:28:46.868Z,1.10
2024-04-16T12:31:16.728Z,1.60
2024-04-16T12:33:46.634Z,1.60
2024-04-16T12:36:16.554Z,1.30
2024-04-16T12:38:44.488Z,1.23
2024-04-16T12:41:14.366Z,1.10
2024-04-16T12:43:41.636Z,0.90
2024-04-16T12:46:11.555Z,1.13
2024-04-16T12:48:38.850Z,1.20
2024-04-16T12:51:11.632Z,1.10
2024-04-16T12:53:39.497Z,1.00
2024-04-16T12:56:13.096Z,1.00
2024-04-16T12:58:40.570Z,0.90
2024-04-16T13:01:10.462Z,0.83
2024-04-16T13:03:37.670Z,0.70
2024-04-16T13:06:08.062Z,0.80
2024-04-16T13:08:38.509Z,0.90
2024-04-16T13:11:10.076Z,1.00
2024-04-16T13:13:37.527Z,0.90
2024-04-16T13:16:08.753Z,1.20
2024-04-16T13:18:36.160Z,1.10
2024-04-16T13:21:06.168Z,1.80
2024-04-16T13:23:33.351Z,1.20
2024-04-16T13:26:05.915Z,1.30
2024-04-16T13:28:33.136Z,1.10
2024-04-16T13:31:04.300Z,1.20
2024-04-16T13:33:31.897Z,1.10
2024-04-16T13:36:01.757Z,1.17
2024-04-16T13:38:28.898Z,1.10
2024-04-16T13:41:00.024Z,1.20
2024-04-16T13:43:29.962Z,1.40
2024-04-16T13:45:59.801Z,1.30
2024-04-16T13:48:27.114Z,1.40
2024-04-16T13:50:59.646Z,1.17
2024-04-16T13:53:28.561Z,1.20
2024-04-16T13:55:59.154Z,0.80
2024-04-16T13:58:26.531Z,1.60
2024-04-16T14:01:00.049Z,1.80
2024-04-16T14:03:28.936Z,1.00
2024-04-16T14:05:58.771Z,1.30
2024-04-16T14:08:26.156Z,1.43
2024-04-16T14:10:56.963Z,0.80
2024-04-16T14:13:24.209Z,1.00
2024-04-16T14:15:54.285Z,1.23
2024-04-16T14:18:24.147Z,1.20
2024-04-16T14:20:54.304Z,0.80
2024-04-16T14:23:21.453Z,0.90
2024-04-16T14:25:51.287Z,0.97
2024-04-16T14:28:18.725Z,0.80
2024-04-16T14:30:48.768Z,1.47
2024-04-16T14:33:16.157Z,1.20
2024-04-16T14:35:49.393Z,1.40
2024-04-16T14:38:16.665Z,0.80
2024-04-16T14:40:46.975Z,1.57
2024-04-16T14:43:14.453Z,0.97
2024-04-16T14:45:44.297Z,1.00
2024-04-16T14:48:11.848Z,1.20
2024-04-16T14:50:43.971Z,1.27
2024-04-16T14:53:14.096Z,1.30
2024-04-16T14:55:48.336Z,0.90
2024-04-16T14:58:15.572Z,1.30
2024-04-16T15:00:46.232Z,1.40
2024-04-16T15:03:13.784Z,1.20
2024-04-16T15:05:44.322Z,0.80
2024-04-16T15:08:14.242Z,1.17
2024-04-16T15:10:44.213Z,1.07
2024-04-16T15:13:12.312Z,0.80
2024-04-16T15:15:42.208Z,1.10
2024-04-16T15:18:09.659Z,1.50
2024-04-16T15:20:39.898Z,1.27
2024-04-16T15:23:07.110Z,1.07
2024-04-16T15:25:40.700Z,0.90
2024-04-16T15:28:08.006Z,1.20
2024-04-16T15:30:37.813Z,1.20
2024-04-16T15:33:05.543Z,1.40
2024-04-16T15:35:50.444Z,1.30
2024-04-16T15:38:18.169Z,1.23
2024-04-16T15:40:52.099Z,0.90
2024-04-16T15:43:20.321Z,0.90
2024-04-16T15:45:50.822Z,1.00
2024-04-16T15:48:18.189Z,1.00
2024-04-16T15:50:52.358Z,0.90
2024-04-16T15:53:19.509Z,0.90
2024-04-16T15:55:55.345Z,1.10
2024-04-16T15:58:25.505Z,1.17
2024-04-16T16:00:55.570Z,1.23
2024-04-16T16:03:22.913Z,1.10
2024-04-16T16:05:55.757Z,1.03
2024-04-16T16:08:25.169Z,1.07
2024-04-16T16:10:57.981Z,0.90
2024-04-16T16:13:25.676Z,1.00
2024-04-16T16:15:55.653Z,0.83
2024-04-16T16:18:23.321Z,1.00
2024-04-16T16:20:54.130Z,0.90
2024-04-16T16:23:21.421Z,0.90
2024-04-16T16:25:52.723Z,1.00
2024-04-16T16:28:22.907Z,0.90
2024-04-16T16:30:52.759Z,0.87
2024-04-16T16:33:20.081Z,3.10
2024-04-16T16:35:50.039Z,0.90
2024-04-16T16:38:17.405Z,1.10
2024-04-16T16:40:47.315Z,1.00
2024-04-16T16:43:14.667Z,1.00
2024-04-16T16:45:47.201Z,1.07
2024-04-16T16:48:16.356Z,1.20
2024-04-16T16:50:47.437Z,1.10
2024-04-16T16:53:17.905Z,1.10
2024-04-16T16:55:52.610Z,1.57
2024-04-16T16:58:21.620Z,1.03
2024-04-16T17:00:55.599Z,1.70
2024-04-16T17:03:23.800Z,1.77
2024-04-16T17:05:54.250Z,0.80
2024-04-16T17:08:21.463Z,0.90
2024-04-16T17:10:51.492Z,1.17
2024-04-16T17:13:18.846Z,1.00
2024-04-16T17:15:48.716Z,0.90
2024-04-16T17:18:18.655Z,0.90
2024-04-16T17:20:49.492Z,0.90
2024-04-16T17:23:17.037Z,1.27
2024-04-16T17:25:49.030Z,1.20
2024-04-16T17:28:17.843Z,1.23
2024-04-16T17:30:49.384Z,1.40
2024-04-16T17:33:22.348Z,1.00
2024-04-16T17:35:49.889Z,1.17
2024-04-16T17:38:20.111Z,1.00
2024-04-16T17:40:47.480Z,1.10
2024-04-16T17:43:17.461Z,1.20
2024-04-16T17:45:46.753Z,1.10
2024-04-16T17:48:16.863Z,1.30
2024-04-16T17:50:46.758Z,1.00
2024-04-16T17:53:18.143Z,0.97
2024-04-16T17:55:45.358Z,1.10
2024-04-16T17:58:15.334Z,1.50
2024-04-16T18:00:42.577Z,1.33
2024-04-16T18:03:12.813Z,1.30
2024-04-16T18:05:41.624Z,1.87
2024-04-16T18:08:14.146Z,1.50
2024-04-16T18:10:41.505Z,1.10
2024-04-16T18:13:16.753Z,1.43
2024-04-16T18:15:44.101Z,1.10
2024-04-16T18:18:14.131Z,0.97
2024-04-16T18:20:42.258Z,1.20
2024-04-16T18:23:16.955Z,1.20
2024-04-16T18:25:45.941Z,1.10
2024-04-16T18:28:16.509Z,1.20
2024-04-16T18:30:43.787Z,1.27
2024-04-16T18:33:13.933Z,1.13
2024-04-16T18:35:41.194Z,1.27
2024-04-16T18:38:17.594Z,1.60
2024-04-16T18:40:45.003Z,1.10
2024-04-16T18:43:15.004Z,1.43
2024-04-16T18:45:45.022Z,1.53
2024-04-16T18:48:15.369Z,2.50
2024-04-16T18:50:47.148Z,1.80
2024-04-16T18:53:19.717Z,1.80
2024-04-16T18:55:47.626Z,2.00
2024-04-16T18:58:18.592Z,1.30
2024-04-16T19:00:46.934Z,1.50
2024-04-16T19:03:18.248Z,1.40
2024-04-16T19:05:51.446Z,1.40
2024-04-16T19:08:22.954Z,1.90
2024-04-16T19:10:52.851Z,2.03
2024-04-16T19:13:20.194Z,1.77
2024-04-16T19:16:00.338Z,1.63
2024-04-16T19:18:29.074Z,1.93
2024-04-16T19:20:59.806Z,2.00
2024-04-16T19:23:29.668Z,1.70
2024-04-16T19:25:59.532Z,1.47
2024-04-16T19:28:28.609Z,1.30
2024-04-16T19:31:00.146Z,1.47
2024-04-16T19:33:28.346Z,1.53
2024-04-16T19:35:58.510Z,1.83
2024-04-16T19:38:29.563Z,2.13
2024-04-16T19:41:00.773Z,1.27
2024-04-16T19:43:28.167Z,1.30
2024-04-16T19:45:58.539Z,1.40
2024-04-16T19:48:26.045Z,1.30
2024-04-16T19:50:56.470Z,1.10
2024-04-16T19:53:24.051Z,1.20
2024-04-16T19:56:04.388Z,1.30
2024-04-16T19:58:37.360Z,2.30
2024-04-16T20:01:08.841Z,2.93
2024-04-16T20:03:37.034Z,1.67
2024-04-16T20:06:10.355Z,1.50
2024-04-16T20:08:38.089Z,1.00
2024-04-16T20:11:11.536Z,1.40
2024-04-16T20:13:40.100Z,1.30
2024-04-16T20:16:14.491Z,1.23
2024-04-16T20:18:42.127Z,1.60
2024-04-16T20:21:12.117Z,1.63
2024-04-16T20:23:39.282Z,1.03
2024-04-16T20:26:14.428Z,1.10
2024-04-16T20:28:42.453Z,1.10
2024-04-16T20:31:13.147Z,0.97
2024-04-16T20:33:40.417Z,1.30
2024-04-16T20:36:11.854Z,1.10
2024-04-16T20:38:39.146Z,1.20
2024-04-16T20:41:11.705Z,1.00
2024-04-16T20:43:39.410Z,1.07
2024-04-16T20:46:11.226Z,1.20
2024-04-16T20:48:41.529Z,1.43
2024-04-16T20:51:11.610Z,1.20
2024-04-16T20:53:38.785Z,2.00
2024-04-16T20:56:11.608Z,1.17
2024-04-16T20:58:38.880Z,1.00
2024-04-16T21:01:09.459Z,1.10
2024-04-16T21:03:36.698Z,1.10
2024-04-16T21:06:06.685Z,1.37
2024-04-16T21:08:33.887Z,1.13
2024-04-16T21:11:03.792Z,1.10
2024-04-16T21:13:34.128Z,1.10
2024-04-16T21:16:03.933Z,1.57
2024-04-16T21:18:31.264Z,1.30
2024-04-16T21:21:01.077Z,1.40
2024-04-16T21:23:28.291Z,1.50
2024-04-16T21:25:58.725Z,1.10
2024-04-16T21:28:25.923Z,1.07
2024-04-16T21:30:58.563Z,1.10
2024-04-16T21:33:25.779Z,1.20
2024-04-16T21:35:55.650Z,1.10
2024-04-16T21:38:22.922Z,1.10
2024-04-16T21:40:52.870Z,1.53
2024-04-16T21:43:20.205Z,1.40
2024-04-16T21:45:50.002Z,1.70
2024-04-16T21:48:19.846Z,1.47
2024-04-16T21:50:55.821Z,1.43
2024-04-16T21:53:23.028Z,1.20
2024-04-16T21:55:52.851Z,1.93
2024-04-16T21:58:20.077Z,1.37
2024-04-16T22:00:50.063Z,1.20
2024-04-16T22:03:19.988Z,1.30
2024-04-16T22:05:49.949Z,1.20
2024-04-16T22:08:17.394Z,1.47
2024-04-16T22:10:50.571Z,1.10
2024-04-16T22:13:17.966Z,1.33
2024-04-16T22:15:56.773Z,1.17
2024-04-16T22:18:28.844Z,1.70
2024-04-16T22:20:59.766Z,1.70
2024-04-16T22:23:27.226Z,1.40
2024-04-16T22:26:03.771Z,1.23
2024-04-16T22:28:32.675Z,1.40
2024-04-16T22:31:03.173Z,1.17
2024-04-16T22:33:33.270Z,1.30
2024-04-16T22:36:03.142Z,1.53
2024-04-16T22:38:30.311Z,1.40
2024-04-16T22:41:00.321Z,1.23
2024-04-16T22:43:27.694Z,1.63
2024-04-16T22:45:58.869Z,1.50
2024-04-16T22:48:27.336Z,1.57
2024-04-16T22:51:03.928Z,1.50
2024-04-16T22:53:32.319Z,1.63
2024-04-16T22:56:02.201Z,1.57
2024-04-16T22:58:36.306Z,1.53
2024-04-16T23:01:06.115Z,1.33
2024-04-16T23:03:33.539Z,1.50
2024-04-16T23:06:06.177Z,1.20
2024-04-16T23:08:33.356Z,1.67
2024-04-16T23:11:04.701Z,1.30
2024-04-16T23:13:32.003Z,1.70
2024-04-16T23:16:01.833Z,1.20
2024-04-16T23:18:29.240Z,1.60
2024-04-16T23:20:59.057Z,1.17
2024-04-16T23:23:28.879Z,1.60
2024-04-16T23:25:58.711Z,1.40
2024-04-16T23:28:25.946Z,1.60
2024-04-16T23:30:55.801Z,1.70
2024-04-16T23:33:23.541Z,1.50
2024-04-16T23:35:53.427Z,1.57
2024-04-16T23:38:20.599Z,1.30
2024-04-16T23:40:53.114Z,1.70
2024-04-16T23:43:20.365Z,1.40
2024-04-16T23:45:50.205Z,1.57
2024-04-16T23:48:18.209Z,1.60
2024-04-16T23:50:48.062Z,2.03
2024-04-16T23:53:16.445Z,1.70
2024-04-16T23:55:46.630Z,1.50
2024-04-16T23:58:16.498Z,2.03
